Observations for BELFAST ALDERGROVE, United Kingdom (EGAA)

EGAA 221220Z 14013KT 9999 FEW010 BKN046 18/16 Q1015 
EGAA 221150Z 13011KT 9999 FEW011 SCT015 BKN042 18/16 Q1015  
EGAA 221120Z 12008KT 9999 FEW013 BKN040 19/16 Q1015 
EGAA 221050Z 10008KT 070V140 9999 FEW011 SCT041 19/16 Q1016 
EGAA 221020Z 11008KT 090V150 9999 FEW004 19/16 Q1016
EGAA 220950Z 14007KT 9999 FEW011 19/16 Q1016
EGAA 220920Z 12006KT 090V150 9999 FEW005 SCT041 19/17 Q1016 
EGAA 220850Z 11006KT 080V150 9999 FEW003 SCT045 19/17 Q1016 
EGAA 220820Z 11006KT 080V150 9999 FEW001 BKN042 19/17 Q1016 
EGAA 220750Z 15005KT 090V220 9999 VCFG BKN044 18/17 Q1016   
EGAA 220720Z 08003KT 9999 VCFG FEW010 BKN047 18/17 Q1016
EGAA 220650Z 07004KT 9999 FEW038 BKN046 17/17 Q1016 
EGAA 220620Z 07004KT 9999 SCT032 SCT038 BKN048 16/16 Q1016  
EGAA 220550Z 08003KT 9999 FEW028 BKN034 16/15 Q1016 
EGAA 220520Z 07003KT 8000 FEW008 SCT030 BKN045 15/15 Q1016  
EGAA 220450Z 07004KT 8000 FEW010 SCT035 BKN045 15/15 Q1016  
EGAA 220420Z 06003KT 8000 FEW014 BKN035 15/15 Q1016 
EGAA 220350Z 08003KT 8000 SCT032 BKN037 16/15 Q1016 
EGAA 220320Z 09003KT 8000 FEW012 BKN022 16/16 Q1016 
EGAA 220250Z 08004KT 8000 FEW012 BKN022 16/16 Q1017 
EGAA 220220Z 05004KT 8000 FEW012 BKN022 16/16 Q1017 
EGAA 220150Z 07004KT 8000 FEW012 BKN022 16/16 Q1017 
EGAA 220120Z 07004KT 9999 SCT020 BKN030 16/16 Q1017 
EGAA 220050Z 08004KT 9999 FEW014 SCT019 BKN028 16/16 Q1017  
EGAA 220020Z 07005KT 7000 BKN015 OVC030 16/16 Q1017 
EGAA 212350Z 06006KT 6000 BKN016 OVC022 16/15 Q1017 REDZ
EGAA 212320Z 07004KT 3500 DZ BR SCT014 SCT020 BKN025 16/15 Q1017
EGAA 212250Z 08006KT 9999 SCT020 BKN042 16/15 Q1017 
EGAA 212220Z 08005KT 9999 SCT026 BKN046 16/15 Q1017 
EGAA 212150Z 08005KT 9999 FEW023 SCT030 BKN046 15/15 Q1017  
EGAA 212120Z 09004KT 050V190 9999 FEW030 16/15 Q1017
EGAA 212050Z 12005KT 080V150 9999 -RA SCT019 BKN036 16/15 Q1017 RERA
EGAA 212020Z 10006KT 080V140 9999 -RA SCT042 16/15 Q1017
EGAA 211950Z 10005KT 070V140 9999 BKN039 16/15 Q1017
EGAA 211920Z 11007KT 9999 -RA FEW015 BKN022 16/15 Q1017 
EGAA 211850Z 10005KT 9999 FEW004 BKN014 16/15 Q1017 
EGAA 211820Z 10005KT 070V130 9999 SCT005 SCT008 BKN017 16/16 Q1017  
EGAA 211750Z VRB03KT 9999 SCT007 BKN020 17/16 Q1017 
EGAA 211720Z 11006KT 080V140 9999 SCT005 BKN017 16/16 Q1017 
EGAA 211650Z 13006KT 9999 -RA SCT005 BKN009 17/16 Q1017 
EGAA 211620Z 11005KT 9999 -RA SCT005 BKN013 17/16 Q1017 
EGAA 211550Z 12006KT 9999 SCT005 BKN012 17/16 Q1018 
EGAA 211520Z 12006KT 9999 -RA SCT006 BKN013 17/16 Q1018 
EGAA 211450Z 13009KT 9999 -RA SCT006 BKN010 17/16 Q1018 
EGAA 211420Z 15009KT 9999 BKN008 BKN013 17/16 Q1018 
EGAA 211350Z 11006KT 080V150 9999 BKN009 18/16 Q1018
EGAA 211320Z 12006KT 090V150 9999 BKN007 BKN017 17/16 Q1018 
EGAA 211250Z 12005KT 090V150 4500 -DZ SCT007 BKN010 16/16 Q1018 REDZ
EGAA 211220Z 14008KT 100V180 7000 -RA BKN009 BKN019 17/15 Q1018 
EGAA 211150Z 13007KT 9999 BKN019 17/15 Q1018